Time;durP1;ratioP1;P1;durP2;ratioP2;P2;SDS_P1;SDS_P2;PMS_P1;PMS_P2;Temp;Humidity;BMP_temperature;BMP_pressure;BME280_temperature;BME280_humidity;BME280_pressure;Samples;Min_cycle;Max_cycle;Signal;HPM_P1;HPM_P2
2023/05/05 00:04:23;;;;;;;60.75;54.25;;;22.10;56.30;;;;;;4729160;55;21043;-38
2023/05/05 00:09:24;;;;;;;59.38;52.90;;;22.10;56.30;;;;;;4795062;55;21062;-39
2023/05/05 00:14:25;;;;;;;59.50;51.35;;;22.10;56.30;;;;;;4718288;59;21023;-27
2023/05/05 00:19:26;;;;;;;58.58;52.30;;;22.10;56.20;;;;;;4724912;55;21580;-30
2023/05/05 00:24:26;;;;;;;59.38;53.08;;;22.10;56.20;;;;;;4746069;55;21039;-30
2023/05/05 00:29:27;;;;;;;59.65;53.35;;;22.10;56.80;;;;;;4718019;59;21482;-24
2023/05/05 00:34:28;;;;;;;58.63;52.35;;;22.10;56.30;;;;;;4718564;59;21023;-29
2023/05/05 00:39:29;;;;;;;55.67;49.50;;;22.10;56.20;;;;;;4747102;55;21130;-27
2023/05/05 00:44:41;;;;;;;55.58;49.58;;;22.10;56.20;;;;;;4763629;55;21067;-26
2023/05/05 00:49:42;;;;;;;54.67;48.70;;;22.10;56.10;;;;;;4813554;55;21964;-36
2023/05/05 00:54:43;;;;;;;55.47;49.58;;;22.10;56.10;;;;;;4730598;55;20999;-35
2023/05/05 00:59:48;;;;;;;51.80;46.20;;;22.10;56.10;;;;;;4728743;55;21561;-31
2023/05/05 01:04:49;;;;;;;50.10;44.60;;;22.10;56.00;;;;;;4738134;55;21443;-26
2023/05/05 01:10:09;;;;;;;52.90;47.25;;;22.10;56.00;;;;;;4753112;55;21082;-29
2023/05/05 01:15:34;;;;;;;50.65;45.17;;;22.10;55.90;;;;;;4762910;55;21542;-25
2023/05/05 01:21:09;;;;;;;50.15;44.70;;;22.10;55.90;;;;;;4737732;55;21063;-35
2023/05/05 01:26:42;;;;;;;50.42;45.10;;;22.10;55.80;;;;;;4720572;55;21131;-24
2023/05/05 01:31:56;;;;;;;50.47;44.97;;;22.10;55.90;;;;;;4718848;59;21098;-40
2023/05/05 01:37:08;;;;;;;47.10;42.25;;;22.10;55.90;;;;;;4731409;55;21011;-25
2023/05/05 01:42:13;;;;;;;46.97;41.85;;;22.10;55.80;;;;;;4734623;55;21043;-29
2023/05/05 01:47:18;;;;;;;47.22;41.92;;;22.10;55.70;;;;;;4821440;55;21497;-29
2023/05/05 01:52:21;;;;;;;43.47;38.88;;;22.10;55.70;;;;;;4801159;55;21067;-28
2023/05/05 01:57:24;;;;;;;46.10;41.17;;;22.10;55.70;;;;;;4807495;55;21090;-25
2023/05/05 02:02:27;;;;;;;45.08;40.17;;;22.00;55.70;;;;;;4856705;55;21493;-26
2023/05/05 02:07:31;;;;;;;44.63;39.92;;;22.10;55.60;;;;;;4750420;55;21015;-30
2023/05/05 02:12:34;;;;;;;46.28;41.37;;;22.00;55.70;;;;;;4732241;55;21344;-37
2023/05/05 02:17:34;;;;;;;44.00;39.20;;;22.00;55.70;;;;;;4780409;55;21019;-26
2023/05/05 02:22:39;;;;;;;41.50;37.25;;;22.00;55.60;;;;;;4777422;55;21031;-28
2023/05/05 02:27:43;;;;;;;43.03;38.47;;;22.00;55.60;;;;;;4880329;55;21043;-26
2023/05/05 02:32:52;;;;;;;42.28;37.53;;;22.00;56.20;;;;;;4740337;55;21987;-31
2023/05/05 02:38:01;;;;;;;42.75;38.20;;;22.00;55.50;;;;;;4718216;59;21420;-26
2023/05/05 02:43:09;;;;;;;38.97;34.78;;;22.00;55.50;;;;;;4773443;55;21549;-29
2023/05/05 02:48:11;;;;;;;41.17;36.88;;;22.00;55.50;;;;;;4718274;59;21506;-24
2023/05/05 02:53:12;;;;;;;40.78;36.28;;;22.00;55.50;;;;;;4792910;55;21812;-26
2023/05/05 02:58:36;;;;;;;39.78;35.58;;;22.00;55.50;;;;;;4735828;55;21379;-25
2023/05/05 03:05:00;;;;;;;38.30;34.30;;;22.00;55.50;;;;;;4802160;55;21071;-25
2023/05/05 03:10:14;;;;;;;38.25;34.05;;;22.00;55.40;;;;;;4771545;55;21018;-25
2023/05/05 03:15:15;;;;;;;35.45;31.70;;;22.00;55.40;;;;;;4876632;55;21066;-25
2023/05/05 03:20:16;;;;;;;39.55;35.30;;;22.00;55.40;;;;;;4774226;55;21026;-34
2023/05/05 03:25:17;;;;;;;38.58;33.15;;;22.00;55.50;;;;;;4803446;55;21047;-25
2023/05/05 03:30:19;;;;;;;35.97;32.08;;;22.00;55.20;;;;;;4774859;55;21018;-29
2023/05/05 03:35:20;;;;;;;35.65;31.85;;;22.00;55.40;;;;;;4939519;55;21529;-26
2023/05/05 03:40:22;;;;;;;35.55;31.85;;;22.00;55.40;;;;;;4718163;59;21110;-27
2023/05/05 03:45:23;;;;;;;34.90;31.10;;;22.00;55.30;;;;;;4718941;59;21030;-30
2023/05/05 03:50:23;;;;;;;35.92;31.85;;;22.00;55.20;;;;;;4745549;55;21038;-38
2023/05/05 03:55:24;;;;;;;35.45;31.67;;;22.00;55.30;;;;;;4718843;59;21067;-31
2023/05/05 04:00:26;;;;;;;35.45;31.65;;;22.00;55.40;;;;;;4742458;55;21477;-27
2023/05/05 04:05:27;;;;;;;34.00;30.55;;;22.00;55.70;;;;;;4813029;55;21543;-36
2023/05/05 04:10:28;;;;;;;33.60;30.05;;;22.00;55.50;;;;;;4850266;55;21079;-26
2023/05/05 04:15:29;;;;;;;32.03;28.73;;;22.00;55.30;;;;;;4767690;55;21711;-30
2023/05/05 04:20:31;;;;;;;32.05;28.55;;;22.00;55.40;;;;;;4717767;59;21521;-27
2023/05/05 04:25:31;;;;;;;32.60;29.15;;;22.00;56.10;;;;;;4749775;55;21517;-29
2023/05/05 04:30:32;;;;;;;32.22;28.55;;;22.00;55.50;;;;;;4884938;55;21027;-26
2023/05/05 04:35:34;;;;;;;33.90;30.20;;;22.00;55.50;;;;;;4734683;55;21508;-29
2023/05/05 04:40:41;;;;;;;31.50;28.10;;;22.00;55.50;;;;;;4717896;59;21501;-43
2023/05/05 04:45:52;;;;;;;32.80;28.60;;;21.90;55.60;;;;;;4718941;56;20987;-25
2023/05/05 04:50:53;;;;;;;31.20;27.85;;;21.90;55.50;;;;;;4733484;55;20983;-36
2023/05/05 04:55:54;;;;;;;31.98;28.42;;;21.90;55.70;;;;;;4749561;55;21031;-29
2023/05/05 05:00:54;;;;;;;32.50;29.00;;;22.00;55.70;;;;;;4741168;55;21629;-38
2023/05/05 05:05:55;;;;;;;33.15;29.65;;;21.90;55.70;;;;;;4718110;59;21039;-26
2023/05/05 05:10:57;;;;;;;33.72;29.65;;;21.90;56.30;;;;;;4791158;55;21477;-25
2023/05/05 05:15:59;;;;;;;32.28;28.80;;;22.00;55.80;;;;;;4749851;55;21082;-33
2023/05/05 05:21:00;;;;;;;31.67;28.20;;;22.00;55.80;;;;;;4856472;55;21120;-30
2023/05/05 05:26:01;;;;;;;32.58;29.08;;;21.90;55.70;;;;;;4775202;55;21577;-26
2023/05/05 05:31:02;;;;;;;31.12;27.77;;;21.90;55.70;;;;;;4759124;55;21035;-27
2023/05/05 05:36:03;;;;;;;30.77;27.50;;;21.90;55.70;;;;;;4775642;55;21510;-30
2023/05/05 05:41:08;;;;;;;32.30;28.90;;;21.90;55.80;;;;;;4753650;55;21071;-24
2023/05/05 05:46:09;;;;;;;31.42;27.35;;;22.00;55.80;;;;;;4798569;55;21051;-30
2023/05/05 05:51:10;;;;;;;31.37;28.12;;;21.90;55.80;;;;;;4752673;55;21007;-24
2023/05/05 05:56:10;;;;;;;30.62;27.33;;;21.90;55.80;;;;;;4745724;55;21703;-30
2023/05/05 06:01:11;;;;;;;31.70;28.33;;;21.90;55.80;;;;;;4734645;55;21023;-32
2023/05/05 06:06:12;;;;;;;32.67;29.27;;;22.00;55.90;;;;;;4759095;55;21601;-36
2023/05/05 06:11:13;;;;;;;31.00;27.08;;;22.00;55.90;;;;;;4719021;55;21075;-25
2023/05/05 06:16:14;;;;;;;31.42;28.02;;;21.90;55.80;;;;;;4836990;55;21019;-27
2023/05/05 06:21:19;;;;;;;32.28;28.95;;;21.90;55.80;;;;;;4718352;59;21019;-27
2023/05/05 06:26:20;;;;;;;30.65;27.35;;;22.00;55.90;;;;;;4717723;59;21577;-26
2023/05/05 06:31:21;;;;;;;29.98;26.77;;;21.90;55.80;;;;;;4760680;55;21616;-28
2023/05/05 06:36:25;;;;;;;31.37;28.08;;;21.90;55.80;;;;;;4718375;59;21003;-24
2023/05/05 06:41:26;;;;;;;31.98;28.65;;;21.90;55.80;;;;;;4762302;55;21008;-28
2023/05/05 06:46:26;;;;;;;33.85;29.00;;;22.00;55.80;;;;;;4752818;55;21048;-25
2023/05/05 06:51:27;;;;;;;32.17;28.67;;;22.00;55.90;;;;;;4718287;57;21003;-28
2023/05/05 06:56:30;;;;;;;32.63;29.05;;;22.00;55.90;;;;;;4736443;55;21500;-25
2023/05/05 07:01:31;;;;;;;31.77;28.08;;;22.00;55.90;;;;;;4736978;55;20991;-30
2023/05/05 07:06:32;;;;;;;32.53;28.87;;;21.90;55.80;;;;;;4789777;55;21408;-39
2023/05/05 07:11:33;;;;;;;33.63;29.67;;;21.90;55.80;;;;;;4848149;55;21565;-30
2023/05/05 07:16:35;;;;;;;32.60;28.00;;;21.90;55.80;;;;;;4726339;55;21003;-32
2023/05/05 07:21:38;;;;;;;34.33;30.52;;;22.00;55.90;;;;;;4729850;55;21640;-26
2023/05/05 07:26:39;;;;;;;33.33;28.73;;;22.00;55.90;;;;;;4729373;55;21537;-28
2023/05/05 07:31:40;;;;;;;34.80;28.52;;;21.90;55.80;;;;;;4731771;55;21006;-33
2023/05/05 07:36:41;;;;;;;33.83;30.12;;;22.00;55.90;;;;;;4769220;55;21585;-35
2023/05/05 07:41:42;;;;;;;34.78;31.08;;;22.00;55.90;;;;;;4718573;59;21075;-37
2023/05/05 07:46:43;;;;;;;36.70;29.90;;;22.00;55.90;;;;;;4718411;59;21050;-28
2023/05/05 07:51:43;;;;;;;36.10;30.33;;;22.00;56.00;;;;;;4740610;55;21034;-46
2023/05/05 07:56:44;;;;;;;35.00;30.15;;;22.00;55.90;;;;;;4718055;59;21134;-42
2023/05/05 08:01:45;;;;;;;36.05;29.85;;;22.00;56.10;;;;;;4737562;55;21452;-42
2023/05/05 08:06:46;;;;;;;37.03;31.65;;;22.00;56.10;;;;;;4752127;55;21466;-41
2023/05/05 08:11:47;;;;;;;39.25;33.28;;;22.00;56.00;;;;;;4718440;56;21601;-33
2023/05/05 08:16:47;;;;;;;39.30;33.25;;;22.00;56.00;;;;;;4757311;55;21054;-29
2023/05/05 08:21:48;;;;;;;45.90;35.63;;;22.00;56.10;;;;;;4718600;59;21022;-26
2023/05/05 08:26:49;;;;;;;40.47;32.15;;;22.00;56.10;;;;;;4788187;55;21063;-38
2023/05/05 08:31:51;;;;;;;39.95;34.25;;;22.00;56.10;;;;;;4814401;55;21007;-27
2023/05/05 08:36:52;;;;;;;42.92;36.00;;;22.00;56.10;;;;;;4718539;59;21585;-30
2023/05/05 08:41:53;;;;;;;41.75;35.38;;;22.00;56.10;;;;;;4808096;55;21007;-33
2023/05/05 08:46:55;;;;;;;42.65;35.72;;;22.00;56.20;;;;;;4737714;55;21075;-26
2023/05/05 08:52:00;;;;;;;41.63;35.10;;;22.00;56.20;;;;;;4764864;55;21014;-31
2023/05/05 08:57:04;;;;;;;42.35;35.45;;;22.00;56.20;;;;;;4780093;55;21542;-30
2023/05/05 09:02:07;;;;;;;40.60;33.63;;;22.00;56.20;;;;;;4718161;59;21090;-27
2023/05/05 09:07:11;;;;;;;38.78;34.33;;;22.00;56.20;;;;;;4718619;59;21034;-43
2023/05/05 09:12:12;;;;;;;38.05;33.03;;;22.00;56.20;;;;;;4718654;59;21056;-42
2023/05/05 09:17:25;;;;;;;41.78;34.45;;;22.00;56.20;;;;;;4715957;59;21541;-25
2023/05/05 09:22:48;;;;;;;43.47;34.97;;;22.00;56.40;;;;;;4740761;55;21003;-28
2023/05/05 09:27:49;;;;;;;42.33;34.60;;;22.10;57.40;;;;;;4742641;55;21067;-26
2023/05/05 09:32:52;;;;;;;42.75;34.20;;;22.10;57.00;;;;;;4743394;55;21019;-32
2023/05/05 09:37:53;;;;;;;41.45;33.65;;;22.20;57.10;;;;;;4798321;55;21095;-42
2023/05/05 09:43:01;;;;;;;45.65;34.95;;;22.30;57.30;;;;;;4809710;55;21108;-32
2023/05/05 09:48:03;;;;;;;39.70;32.83;;;22.30;57.40;;;;;;4716294;56;21644;-33
2023/05/05 09:53:04;;;;;;;41.60;34.80;;;22.40;58.80;;;;;;4727786;55;21023;-25
2023/05/05 09:58:32;;;;;;;44.08;34.45;;;22.40;58.90;;;;;;4721658;55;21977;-32
2023/05/05 10:03:48;;;;;;;44.83;35.03;;;22.40;58.60;;;;;;4717051;59;21039;-28
2023/05/05 10:09:01;;;;;;;41.60;34.30;;;22.40;58.50;;;;;;4724938;55;21348;-23
2023/05/05 10:14:05;;;;;;;38.85;33.28;;;22.40;58.40;;;;;;4746708;55;21010;-26
2023/05/05 10:19:06;;;;;;;38.85;32.78;;;22.50;58.30;;;;;;4729745;55;21015;-26
2023/05/05 10:25:00;;;;;;;39.88;33.30;;;22.50;58.20;;;;;;4742503;55;21261;-25
2023/05/05 10:30:15;;;;;;;39.58;33.22;;;22.50;58.10;;;;;;4748693;55;21253;-23
2023/05/05 10:35:21;;;;;;;43.10;33.47;;;22.40;58.60;;;;;;4716428;59;21516;-24
2023/05/05 10:40:22;;;;;;;40.75;33.25;;;22.40;57.90;;;;;;4747123;55;21055;-31
2023/05/05 10:45:23;;;;;;;41.72;33.20;;;22.40;58.10;;;;;;4723087;55;21023;-22
2023/05/05 10:50:30;;;;;;;42.92;34.75;;;22.50;60.10;;;;;;4746133;55;21501;-27
2023/05/05 10:56:53;;;;;;;57.62;43.60;;;22.50;59.00;;;;;;4723805;55;21007;-25
2023/05/05 11:01:54;;;;;;;67.97;45.33;;;22.50;59.50;;;;;;4714710;59;21086;-30
2023/05/05 11:10:42;;;;;;;64.65;46.08;;;22.50;62.30;;;;;;4716415;59;21510;-35
2023/05/05 11:15:43;;;;;;;66.93;45.78;;;22.50;67.30;;;;;;4758905;55;21125;-25
2023/05/05 11:21:29;;;;;;;60.58;44.35;;;22.50;67.00;;;;;;4734516;55;21127;-33
2023/05/05 11:26:52;;;;;;;63.17;44.05;;;22.50;66.20;;;;;;4724706;55;21059;-24
2023/05/05 11:32:24;;;;;;;62.28;42.75;;;22.60;68.50;;;;;;4718558;55;21063;-26
2023/05/05 11:37:27;;;;;;;62.60;43.17;;;22.60;78.40;;;;;;4715932;56;21087;-32
2023/05/05 11:42:29;;;;;;;60.75;42.03;;;22.40;72.00;;;;;;4755631;55;21063;-34
2023/05/05 11:47:31;;;;;;;59.28;43.25;;;22.30;71.00;;;;;;4745096;55;21526;-35
2023/05/05 11:52:33;;;;;;;63.33;42.30;;;22.40;70.20;;;;;;4714352;56;24775;-38
2023/05/05 11:57:34;;;;;;;59.22;42.15;;;22.40;69.80;;;;;;4745656;55;22242;-35
2023/05/05 12:02:36;;;;;;;54.92;41.15;;;22.50;69.70;;;;;;4721691;55;21051;-35
2023/05/05 12:07:37;;;;;;;57.25;41.90;;;22.50;69.20;;;;;;4716617;55;21048;-36
2023/05/05 12:12:39;;;;;;;51.90;40.25;;;22.50;68.50;;;;;;4720413;55;21038;-35
2023/05/05 12:17:44;;;;;;;54.97;41.65;;;22.40;68.30;;;;;;4715809;56;21541;-35
2023/05/05 12:22:48;;;;;;;53.55;41.95;;;22.40;68.20;;;;;;4715739;59;21139;-36
2023/05/05 12:27:52;;;;;;;50.30;40.88;;;22.40;68.00;;;;;;4888971;55;21468;-38
2023/05/05 12:33:04;;;;;;;55.33;42.05;;;22.30;67.60;;;;;;4722060;55;21502;-36
2023/05/05 12:38:05;;;;;;;51.08;40.55;;;22.30;67.40;;;;;;4727266;55;21482;-33
2023/05/05 12:43:07;;;;;;;54.85;39.40;;;22.30;67.30;;;;;;4715599;59;21022;-31
2023/05/05 12:48:23;;;;;;;49.97;38.50;;;22.30;67.00;;;;;;4776198;55;21099;-33
2023/05/05 12:53:25;;;;;;;51.67;40.35;;;22.30;68.40;;;;;;4726677;55;21015;-31
2023/05/05 12:58:26;;;;;;;53.05;41.60;;;22.40;68.20;;;;;;4732440;55;21597;-29
2023/05/05 13:03:27;;;;;;;56.22;42.55;;;22.40;68.30;;;;;;4797156;55;21565;-35
2023/05/05 13:08:43;;;;;;;49.58;38.92;;;22.50;68.40;;;;;;4717934;55;21004;-34
2023/05/05 13:13:45;;;;;;;51.58;39.28;;;22.50;68.30;;;;;;4716495;55;21028;-32
2023/05/05 13:18:47;;;;;;;51.10;40.55;;;22.50;68.30;;;;;;4736678;55;21470;-35
2023/05/05 13:23:48;;;;;;;48.42;39.85;;;22.50;68.20;;;;;;4732850;55;21044;-28
2023/05/05 13:28:49;;;;;;;53.40;40.00;;;22.60;68.30;;;;;;4720728;55;21898;-33
2023/05/05 13:33:49;;;;;;;49.45;38.13;;;22.60;68.20;;;;;;4736967;55;21205;-35
2023/05/05 13:38:50;;;;;;;47.15;37.80;;;22.50;67.60;;;;;;4715484;56;21080;-37
2023/05/05 13:43:51;;;;;;;47.58;38.05;;;22.50;67.70;;;;;;4788695;55;21055;-38
2023/05/05 13:48:52;;;;;;;46.80;38.22;;;22.50;67.60;;;;;;4717566;55;21051;-36
2023/05/05 13:53:53;;;;;;;45.53;37.42;;;22.40;67.30;;;;;;4723979;55;21125;-36
2023/05/05 13:58:54;;;;;;;51.75;38.80;;;22.40;67.20;;;;;;4721975;55;21505;-34
2023/05/05 14:03:55;;;;;;;43.60;37.15;;;22.40;67.00;;;;;;4770888;55;21043;-31
2023/05/05 14:08:56;;;;;;;43.90;36.88;;;22.40;66.90;;;;;;4725179;55;21212;-34
2023/05/05 14:13:57;;;;;;;44.13;35.53;;;22.40;66.80;;;;;;4749113;55;21568;-33
2023/05/05 14:18:59;;;;;;;49.28;37.35;;;22.40;66.80;;;;;;4787645;55;21579;-32
2023/05/05 14:24:00;;;;;;;41.97;36.28;;;22.40;66.70;;;;;;4749297;55;21071;-33
2023/05/05 14:29:01;;;;;;;42.88;35.60;;;22.30;66.60;;;;;;4764431;55;21566;-37
2023/05/05 14:34:01;;;;;;;43.85;36.17;;;22.30;66.50;;;;;;4739874;55;21015;-36
2023/05/05 14:39:02;;;;;;;48.75;37.33;;;22.30;66.30;;;;;;4766620;55;21478;-33
2023/05/05 14:44:03;;;;;;;43.10;35.33;;;22.30;66.10;;;;;;4742210;55;21067;-35
2023/05/05 14:49:04;;;;;;;43.78;35.72;;;22.30;66.10;;;;;;4737808;55;21084;-36
2023/05/05 14:54:05;;;;;;;43.33;34.90;;;22.30;66.00;;;;;;4764803;55;21490;-35
2023/05/05 14:59:06;;;;;;;43.55;35.47;;;22.30;65.90;;;;;;4723810;55;21007;-32
2023/05/05 15:04:07;;;;;;;43.50;36.45;;;22.30;65.90;;;;;;4767841;55;21497;-32
2023/05/05 15:09:08;;;;;;;41.33;34.65;;;22.20;65.70;;;;;;4739205;55;21035;-32
2023/05/05 15:14:09;;;;;;;41.88;34.30;;;22.30;65.60;;;;;;4767223;55;21534;-33
2023/05/05 15:19:13;;;;;;;40.65;35.60;;;22.30;65.50;;;;;;4753839;55;21015;-35
2023/05/05 15:24:14;;;;;;;42.78;34.58;;;22.30;65.60;;;;;;4770236;55;21083;-34
2023/05/05 15:29:15;;;;;;;40.20;34.22;;;22.30;65.30;;;;;;4767833;55;21577;-36
2023/05/05 15:34:16;;;;;;;38.85;33.65;;;22.30;65.30;;;;;;4715625;59;21011;-36
2023/05/05 15:39:17;;;;;;;40.58;34.72;;;22.30;65.30;;;;;;4721412;55;21478;-33
2023/05/05 15:44:18;;;;;;;40.35;33.83;;;22.30;65.20;;;;;;4794215;55;21852;-36
2023/05/05 15:49:19;;;;;;;40.35;35.00;;;22.30;65.10;;;;;;4734790;55;21028;-35
2023/05/05 15:54:20;;;;;;;40.42;33.28;;;22.30;65.10;;;;;;4715843;55;21485;-32
2023/05/05 15:59:21;;;;;;;39.42;34.35;;;22.20;64.90;;;;;;4754068;55;21023;-34
2023/05/05 16:04:21;;;;;;;37.65;32.50;;;22.20;64.90;;;;;;4749224;55;21003;-34
2023/05/05 16:09:23;;;;;;;43.17;33.83;;;22.20;64.80;;;;;;4862137;55;21513;-34
2023/05/05 16:14:23;;;;;;;40.55;34.53;;;22.30;64.80;;;;;;4727318;55;21035;-34
2023/05/05 16:19:26;;;;;;;39.65;34.25;;;22.20;64.70;;;;;;4763467;55;21015;-34
2023/05/05 16:24:27;;;;;;;38.63;33.13;;;22.20;64.50;;;;;;4759210;55;21617;-31
2023/05/05 16:29:28;;;;;;;38.22;32.78;;;22.20;64.50;;;;;;4764969;55;21147;-35
2023/05/05 16:34:29;;;;;;;38.63;33.03;;;22.20;64.50;;;;;;4881814;55;21517;-36
2023/05/05 16:39:31;;;;;;;36.72;32.53;;;22.20;64.40;;;;;;4778126;55;21031;-35
2023/05/05 16:44:32;;;;;;;38.63;33.17;;;22.20;64.40;;;;;;4732875;55;21901;-36
2023/05/05 16:49:33;;;;;;;38.53;33.63;;;22.20;64.30;;;;;;4751482;55;21055;-35
2023/05/05 16:54:34;;;;;;;41.05;34.13;;;22.20;64.20;;;;;;4752251;55;22070;-33
2023/05/05 16:59:35;;;;;;;38.83;33.50;;;22.20;64.20;;;;;;4782958;55;21000;-36
2023/05/05 17:04:36;;;;;;;38.78;33.50;;;22.20;64.10;;;;;;4727606;55;21012;-36
2023/05/05 17:09:38;;;;;;;38.83;31.83;;;22.20;64.10;;;;;;4718600;55;21051;-36
2023/05/05 17:14:39;;;;;;;37.85;32.30;;;22.20;64.10;;;;;;4833772;55;21309;-31
2023/05/05 17:19:41;;;;;;;39.70;34.58;;;22.20;63.90;;;;;;4739078;55;21940;-36
2023/05/05 17:24:42;;;;;;;38.20;33.33;;;22.20;63.80;;;;;;4733125;55;21418;-38
2023/05/05 17:29:43;;;;;;;37.20;32.08;;;22.20;63.80;;;;;;4789421;55;21031;-36
2023/05/05 17:34:43;;;;;;;35.13;31.30;;;22.20;63.80;;;;;;4731826;55;21640;-36
2023/05/05 17:39:44;;;;;;;36.45;31.98;;;22.20;63.70;;;;;;4771521;55;21048;-35
2023/05/05 17:44:45;;;;;;;39.63;31.17;;;22.20;63.90;;;;;;4715947;59;21340;-36
2023/05/05 17:49:46;;;;;;;35.63;31.75;;;22.20;63.50;;;;;;4714833;59;21067;-35
2023/05/05 17:54:49;;;;;;;37.08;32.05;;;22.20;63.50;;;;;;4772460;55;21415;-35
2023/05/05 17:59:52;;;;;;;35.65;31.75;;;22.20;63.40;;;;;;4782598;55;21485;-36
2023/05/05 18:04:53;;;;;;;35.20;30.80;;;22.20;63.30;;;;;;4778098;55;21557;-37
2023/05/05 18:09:53;;;;;;;35.03;31.23;;;22.20;63.20;;;;;;4736574;55;21027;-37
2023/05/05 18:14:54;;;;;;;35.78;31.27;;;22.20;63.20;;;;;;4728191;55;21537;-36
2023/05/05 18:19:55;;;;;;;37.15;31.20;;;22.20;63.10;;;;;;4844959;55;21007;-37
2023/05/05 18:24:57;;;;;;;35.72;31.55;;;22.20;63.00;;;;;;4725886;55;21032;-36
2023/05/05 18:29:59;;;;;;;37.00;33.05;;;22.20;62.90;;;;;;4715385;59;21629;-37
2023/05/05 18:35:00;;;;;;;35.45;30.73;;;22.20;62.80;;;;;;4771804;55;21083;-36
2023/05/05 18:40:01;;;;;;;36.35;30.95;;;22.20;62.80;;;;;;4778059;55;20999;-37
2023/05/05 18:45:02;;;;;;;34.80;30.40;;;22.20;62.80;;;;;;4800405;55;21023;-37
2023/05/05 18:50:04;;;;;;;37.15;30.67;;;22.20;62.70;;;;;;4717959;55;21565;-36
2023/05/05 18:55:06;;;;;;;34.78;30.88;;;22.20;62.60;;;;;;4751446;55;20999;-37
2023/05/05 19:00:08;;;;;;;34.42;30.67;;;22.20;62.60;;;;;;4724084;55;21628;-35
2023/05/05 19:05:09;;;;;;;35.25;31.45;;;22.20;62.40;;;;;;4772892;55;21059;-37
2023/05/05 19:10:10;;;;;;;36.28;31.33;;;22.20;62.50;;;;;;4770933;55;21047;-36
2023/05/05 19:15:12;;;;;;;34.20;30.50;;;22.20;62.40;;;;;;4772030;55;21489;-34
2023/05/05 19:20:13;;;;;;;36.80;30.33;;;22.20;62.30;;;;;;4778568;55;21471;-36
2023/05/05 19:25:15;;;;;;;33.55;30.02;;;22.20;62.30;;;;;;4728400;55;21104;-38
2023/05/05 19:30:16;;;;;;;33.83;30.20;;;22.20;62.20;;;;;;4715318;59;21569;-35
2023/05/05 19:35:17;;;;;;;32.90;29.30;;;22.20;62.20;;;;;;4761902;55;21020;-37
2023/05/05 19:40:17;;;;;;;35.63;29.90;;;22.20;62.10;;;;;;4723354;55;21083;-35
2023/05/05 19:45:18;;;;;;;32.80;28.50;;;22.20;62.10;;;;;;4798083;55;21079;-35
2023/05/05 19:50:21;;;;;;;32.40;29.00;;;22.20;62.10;;;;;;4715437;59;21003;-36
2023/05/05 19:55:22;;;;;;;34.55;29.55;;;22.20;62.00;;;;;;4751962;55;21506;-36
2023/05/05 20:00:22;;;;;;;32.90;29.40;;;22.20;62.00;;;;;;4796993;55;21012;-36
2023/05/05 20:05:23;;;;;;;32.63;29.08;;;22.20;62.00;;;;;;4770249;55;21063;-35
2023/05/05 20:10:25;;;;;;;35.08;29.27;;;22.20;61.90;;;;;;4715061;59;21028;-37
2023/05/05 20:15:26;;;;;;;33.22;29.67;;;22.20;61.90;;;;;;4715891;55;21494;-37
2023/05/05 20:20:28;;;;;;;32.45;28.52;;;22.20;61.80;;;;;;4808893;55;21016;-37
2023/05/05 20:25:29;;;;;;;33.55;28.87;;;22.20;61.80;;;;;;4715282;59;21044;-36
2023/05/05 20:30:30;;;;;;;32.47;28.55;;;22.20;61.70;;;;;;4830782;55;22228;-36
2023/05/05 20:35:31;;;;;;;33.20;29.60;;;22.20;61.60;;;;;;4719029;55;21075;-36
2023/05/05 20:40:32;;;;;;;32.22;28.83;;;22.10;61.50;;;;;;4744306;55;21531;-35
2023/05/05 20:45:33;;;;;;;33.92;27.80;;;22.20;61.60;;;;;;4766482;55;21451;-33
2023/05/05 20:50:37;;;;;;;32.33;28.95;;;22.10;61.50;;;;;;4780754;55;21502;-36
2023/05/05 20:55:38;;;;;;;31.87;28.45;;;22.10;61.50;;;;;;4764657;55;21003;-35
2023/05/05 21:00:39;;;;;;;31.85;28.33;;;22.10;61.40;;;;;;4784727;55;21071;-33
2023/05/05 21:05:40;;;;;;;30.05;26.80;;;22.10;62.00;;;;;;4738536;55;21048;-31
2023/05/05 21:10:41;;;;;;;33.47;27.35;;;22.10;61.20;;;;;;4820357;55;21107;-30
2023/05/05 21:15:42;;;;;;;29.50;26.20;;;22.10;61.10;;;;;;4736342;55;21024;-32
2023/05/05 21:20:44;;;;;;;31.30;27.98;;;22.10;61.20;;;;;;4803425;55;21024;-35
2023/05/05 21:25:45;;;;;;;29.25;25.52;;;22.10;61.80;;;;;;4727590;55;21043;-32
2023/05/05 21:30:45;;;;;;;30.25;27.02;;;22.10;61.10;;;;;;4810374;55;21602;-31
2023/05/05 21:35:46;;;;;;;30.83;27.52;;;22.10;61.10;;;;;;4727538;55;20991;-28
2023/05/05 21:40:48;;;;;;;30.08;26.87;;;22.10;61.10;;;;;;4769316;55;21485;-32
2023/05/05 21:46:00;;;;;;;30.02;25.80;;;22.10;61.20;;;;;;4735585;55;21494;-31
2023/05/05 21:51:01;;;;;;;29.17;25.98;;;22.10;61.00;;;;;;4787943;55;21036;-37
2023/05/05 21:56:03;;;;;;;29.87;26.25;;;22.10;61.00;;;;;;4715842;59;21816;-35
2023/05/05 22:01:04;;;;;;;29.45;26.27;;;22.10;61.00;;;;;;4715549;59;21071;-36
2023/05/05 22:06:05;;;;;;;29.83;26.73;;;22.10;61.00;;;;;;4744623;55;21079;-36
2023/05/05 22:11:06;;;;;;;30.37;26.90;;;22.10;60.90;;;;;;4732328;55;20996;-36
2023/05/05 22:16:08;;;;;;;30.05;26.85;;;22.10;61.00;;;;;;4716285;55;21325;-36
2023/05/05 22:21:09;;;;;;;29.67;26.48;;;22.10;61.00;;;;;;4809517;55;21466;-36
2023/05/05 22:26:10;;;;;;;29.35;26.12;;;22.10;60.80;;;;;;4772497;55;21051;-34
2023/05/05 22:31:11;;;;;;;28.62;25.55;;;22.10;60.80;;;;;;4742630;55;21107;-37
2023/05/05 22:36:13;;;;;;;27.73;24.83;;;22.10;60.80;;;;;;4750187;55;21067;-35
2023/05/05 22:41:14;;;;;;;30.27;26.67;;;22.10;60.80;;;;;;4768636;55;21490;-31
2023/05/05 22:46:15;;;;;;;28.30;25.30;;;22.10;60.70;;;;;;4737391;55;21538;-35
2023/05/05 22:51:16;;;;;;;29.52;25.33;;;22.10;60.70;;;;;;4756612;55;21624;-35
2023/05/05 22:56:17;;;;;;;28.80;25.45;;;22.10;60.70;;;;;;4753472;55;21027;-34
2023/05/05 23:01:18;;;;;;;28.85;25.30;;;22.10;60.70;;;;;;4737940;55;21888;-35
2023/05/05 23:06:19;;;;;;;27.48;24.48;;;22.10;60.60;;;;;;4740636;55;21083;-36
2023/05/05 23:11:19;;;;;;;28.33;24.70;;;22.10;60.60;;;;;;4819213;55;21633;-31
2023/05/05 23:16:20;;;;;;;27.23;24.33;;;22.10;60.60;;;;;;4719577;55;21035;-36
2023/05/05 23:21:21;;;;;;;27.05;24.08;;;22.10;60.60;;;;;;4720426;55;21482;-28
2023/05/05 23:26:22;;;;;;;26.48;23.75;;;22.10;60.50;;;;;;4714775;55;21028;-36
2023/05/05 23:31:23;;;;;;;25.02;22.33;;;22.10;60.50;;;;;;4714810;59;21533;-36
2023/05/05 23:36:24;;;;;;;26.02;23.20;;;22.10;60.50;;;;;;4716039;59;21091;-36
2023/05/05 23:41:25;;;;;;;26.17;23.48;;;22.10;60.50;;;;;;4771451;55;21538;-34
2023/05/05 23:46:25;;;;;;;28.02;23.33;;;22.10;60.50;;;;;;4771195;55;21199;-36
2023/05/05 23:51:26;;;;;;;25.55;22.73;;;22.10;60.40;;;;;;4828108;55;21097;-35
2023/05/05 23:56:27;;;;;;;24.37;21.87;;;22.10;60.50;;;;;;4772509;55;21052;-34
